createdAt,value
2017-12-10T00:00:14.975Z,17.30
2017-12-10T00:01:20.153Z,17.30
2017-12-10T00:02:25.228Z,17.30
2017-12-10T00:03:30.316Z,17.30
2017-12-10T00:04:35.636Z,17.30
2017-12-10T00:05:40.642Z,17.30
2017-12-10T00:06:45.728Z,17.30
2017-12-10T00:07:51.017Z,17.30
2017-12-10T00:08:56.240Z,17.30
2017-12-10T00:10:01.523Z,17.30
2017-12-10T00:11:06.793Z,17.30
2017-12-10T00:12:11.879Z,17.30
2017-12-10T00:13:17.062Z,17.30
2017-12-10T00:14:22.272Z,17.30
2017-12-10T00:15:27.265Z,17.30
2017-12-10T00:16:32.192Z,17.30
2017-12-10T00:17:37.176Z,17.30
2017-12-10T00:18:42.076Z,17.30
2017-12-10T00:19:47.201Z,17.30
2017-12-10T00:20:52.154Z,17.30
2017-12-10T00:21:57.108Z,17.30
2017-12-10T00:23:01.888Z,17.30
2017-12-10T00:24:06.672Z,17.30
2017-12-10T00:25:11.451Z,17.30
2017-12-10T00:26:16.132Z,17.20
2017-12-10T00:27:21.011Z,17.30
2017-12-10T00:28:25.734Z,17.20
2017-12-10T00:29:30.701Z,17.30
2017-12-10T00:30:35.452Z,17.30
2017-12-10T00:31:40.443Z,17.30
2017-12-10T00:32:45.234Z,17.20
2017-12-10T00:33:50.053Z,17.20
2017-12-10T00:34:54.833Z,17.20
2017-12-10T00:35:59.451Z,17.20
2017-12-10T00:37:04.394Z,17.20
2017-12-10T00:38:09.312Z,17.20
2017-12-10T00:39:14.110Z,17.20
2017-12-10T00:40:19.032Z,17.20
2017-12-10T00:41:23.851Z,17.20
2017-12-10T00:42:28.623Z,17.20
2017-12-10T00:43:33.549Z,17.20
2017-12-10T00:44:38.276Z,17.20
2017-12-10T00:45:42.908Z,17.20
2017-12-10T00:46:47.750Z,17.20
2017-12-10T00:47:52.529Z,17.20
2017-12-10T00:48:57.488Z,17.20
2017-12-10T00:50:02.334Z,17.20
2017-12-10T00:51:07.282Z,17.20
2017-12-10T00:52:12.054Z,17.20
2017-12-10T00:53:16.791Z,17.20
2017-12-10T00:54:21.711Z,17.20
2017-12-10T00:55:26.597Z,17.20
2017-12-10T00:56:31.374Z,17.20
2017-12-10T00:57:35.937Z,17.20
2017-12-10T00:58:40.551Z,17.20
2017-12-10T00:59:45.124Z,17.20
2017-12-10T01:00:49.875Z,17.20
2017-12-10T01:01:54.564Z,17.20
2017-12-10T01:02:59.315Z,17.20
2017-12-10T01:04:04.132Z,17.20
2017-12-10T01:05:08.900Z,17.20
2017-12-10T01:06:13.797Z,17.20
2017-12-10T01:07:18.626Z,17.20
2017-12-10T01:08:23.582Z,17.20
2017-12-10T01:09:28.236Z,17.20
2017-12-10T01:10:32.999Z,17.20
2017-12-10T01:11:37.685Z,17.20
2017-12-10T01:12:42.303Z,17.20
2017-12-10T01:13:47.313Z,17.20
2017-12-10T01:14:52.135Z,17.20
2017-12-10T01:15:57.045Z,17.20
2017-12-10T01:17:01.940Z,17.20
2017-12-10T01:18:06.894Z,17.20
2017-12-10T01:19:11.688Z,17.20
2017-12-10T01:20:16.381Z,17.20
2017-12-10T01:21:21.303Z,17.20
2017-12-10T01:22:26.305Z,17.10
2017-12-10T01:23:31.011Z,17.20
2017-12-10T01:24:35.638Z,17.20
2017-12-10T01:25:40.226Z,17.20
2017-12-10T01:26:45.059Z,17.10
2017-12-10T01:27:49.872Z,17.10
2017-12-10T01:28:54.711Z,17.20
2017-12-10T01:29:59.464Z,17.20
2017-12-10T01:31:04.400Z,17.20
2017-12-10T01:32:09.185Z,17.10
2017-12-10T01:33:13.951Z,17.10
2017-12-10T01:34:18.682Z,17.10
2017-12-10T01:35:23.687Z,17.20
2017-12-10T01:36:28.764Z,17.10
2017-12-10T01:37:33.313Z,17.10
2017-12-10T01:38:38.057Z,17.10
2017-12-10T01:39:42.969Z,17.10
2017-12-10T01:40:47.782Z,17.10
2017-12-10T01:41:52.639Z,17.20
2017-12-10T01:42:57.636Z,17.10
2017-12-10T01:44:02.413Z,17.10
2017-12-10T01:45:07.158Z,17.10
2017-12-10T01:46:11.929Z,17.10
2017-12-10T01:47:16.690Z,17.10
2017-12-10T01:48:21.290Z,17.10
2017-12-10T01:49:26.213Z,17.10
2017-12-10T01:50:30.905Z,17.10
2017-12-10T01:51:35.500Z,17.10
2017-12-10T01:52:40.295Z,17.10
2017-12-10T01:53:45.075Z,17.10
2017-12-10T01:54:49.830Z,17.10
2017-12-10T01:55:54.646Z,17.10
2017-12-10T01:56:59.381Z,17.10
2017-12-10T01:58:04.156Z,17.10
2017-12-10T01:59:20.880Z,17.10
2017-12-10T02:00:25.764Z,17.10
2017-12-10T02:01:30.463Z,17.10
2017-12-10T02:02:35.417Z,17.10
2017-12-10T02:03:40.150Z,17.10
2017-12-10T02:04:44.928Z,17.10
2017-12-10T02:05:49.757Z,17.10
2017-12-10T02:06:54.583Z,17.10
2017-12-10T02:07:59.465Z,17.10
2017-12-10T02:09:04.323Z,17.10
2017-12-10T02:10:09.295Z,17.10
2017-12-10T02:11:14.242Z,17.10
2017-12-10T02:12:18.811Z,17.10
2017-12-10T02:13:23.565Z,17.10
2017-12-10T02:14:28.435Z,17.10
2017-12-10T02:15:32.975Z,17.10
2017-12-10T02:16:37.621Z,17.10
2017-12-10T02:17:42.383Z,17.10
2017-12-10T02:18:47.163Z,17.10
2017-12-10T02:19:52.081Z,17.10
2017-12-10T02:20:56.682Z,17.10
2017-12-10T02:22:01.487Z,17.10
2017-12-10T02:23:06.223Z,17.10
2017-12-10T02:24:10.922Z,17.10
2017-12-10T02:25:15.463Z,17.10
2017-12-10T02:26:20.182Z,17.10
2017-12-10T02:27:25.068Z,17.10
2017-12-10T02:28:29.767Z,17.10
2017-12-10T02:29:34.587Z,17.00
2017-12-10T02:30:39.586Z,17.10
2017-12-10T02:31:44.499Z,17.00
2017-12-10T02:32:49.234Z,17.10
2017-12-10T02:33:54.007Z,17.10
2017-12-10T02:34:58.933Z,17.10
2017-12-10T02:36:03.587Z,17.10
2017-12-10T02:37:08.365Z,17.10
2017-12-10T02:38:13.176Z,17.10
2017-12-10T02:39:17.823Z,17.10
2017-12-10T02:40:22.581Z,17.10
2017-12-10T02:41:27.390Z,17.10
2017-12-10T02:42:31.980Z,17.10
2017-12-10T02:43:36.792Z,17.10
2017-12-10T02:44:41.674Z,17.10
2017-12-10T02:45:46.574Z,17.10
2017-12-10T02:46:51.347Z,17.10
2017-12-10T02:47:56.246Z,17.10
2017-12-10T02:49:00.821Z,17.10
2017-12-10T02:50:05.868Z,17.10
2017-12-10T02:51:10.433Z,17.10
2017-12-10T02:52:15.342Z,17.10
2017-12-10T02:53:19.988Z,17.10
2017-12-10T02:54:24.788Z,17.10
2017-12-10T02:55:29.334Z,17.10
2017-12-10T02:56:33.924Z,17.10
2017-12-10T02:57:38.635Z,17.10
2017-12-10T02:59:47.217Z,17.10
2017-12-10T03:00:52.083Z,17.10
2017-12-10T03:01:56.905Z,17.10
2017-12-10T03:03:01.811Z,17.10
2017-12-10T03:04:06.512Z,17.10
2017-12-10T03:05:11.236Z,17.10
2017-12-10T03:06:15.990Z,17.10
2017-12-10T03:07:20.836Z,17.10
2017-12-10T03:08:25.604Z,17.10
2017-12-10T03:09:30.470Z,17.10
2017-12-10T03:10:35.165Z,17.10
2017-12-10T03:11:39.876Z,17.10
2017-12-10T03:12:44.596Z,17.10
2017-12-10T03:13:49.299Z,17.10
2017-12-10T03:14:53.827Z,17.10
2017-12-10T03:15:58.698Z,17.10
2017-12-10T03:17:03.517Z,17.10
2017-12-10T03:18:08.132Z,17.10
2017-12-10T03:19:12.720Z,17.00
2017-12-10T03:20:17.593Z,17.00
2017-12-10T03:21:22.131Z,17.00
2017-12-10T03:22:26.851Z,17.00
2017-12-10T03:23:31.410Z,17.00
2017-12-10T03:24:36.245Z,17.00
2017-12-10T03:25:40.940Z,17.00
2017-12-10T03:26:45.721Z,17.00
2017-12-10T03:27:50.311Z,17.00
2017-12-10T03:28:54.950Z,17.00
2017-12-10T03:29:59.712Z,17.00
2017-12-10T03:31:04.477Z,17.00
2017-12-10T03:32:09.191Z,17.00
2017-12-10T03:33:13.953Z,17.00
2017-12-10T03:34:18.551Z,17.00
2017-12-10T03:35:23.290Z,17.00
2017-12-10T03:36:28.209Z,17.00
2017-12-10T03:37:33.117Z,17.00
2017-12-10T03:38:37.861Z,17.00
2017-12-10T03:39:42.629Z,17.00
2017-12-10T03:40:47.356Z,17.00
2017-12-10T03:41:52.245Z,17.00
2017-12-10T03:42:56.865Z,17.00
2017-12-10T03:44:01.599Z,17.00
2017-12-10T03:45:06.344Z,17.00
2017-12-10T03:46:11.091Z,17.00
2017-12-10T03:47:15.662Z,17.00
2017-12-10T03:48:20.447Z,17.00
2017-12-10T03:49:25.384Z,17.00
2017-12-10T03:50:30.050Z,17.00
2017-12-10T03:51:35.036Z,17.00
2017-12-10T03:52:39.997Z,17.00
2017-12-10T03:53:44.970Z,17.00
2017-12-10T03:54:49.578Z,17.00
2017-12-10T03:55:54.191Z,17.00
2017-12-10T03:56:59.182Z,17.00
2017-12-10T03:58:04.053Z,17.00
2017-12-10T03:59:08.647Z,17.00
2017-12-10T04:00:13.480Z,17.00
2017-12-10T04:01:18.467Z,17.00
2017-12-10T04:02:23.153Z,17.00
2017-12-10T04:03:27.792Z,17.00
2017-12-10T04:04:32.559Z,17.00
2017-12-10T04:05:37.323Z,17.00
2017-12-10T04:06:42.085Z,17.00
2017-12-10T04:07:47.098Z,17.00
2017-12-10T04:08:51.946Z,17.00
2017-12-10T04:09:56.565Z,17.00
2017-12-10T04:11:01.460Z,17.00
2017-12-10T04:12:06.345Z,17.00
2017-12-10T04:13:11.129Z,17.00
2017-12-10T04:14:16.061Z,17.00
2017-12-10T04:15:20.818Z,17.00
2017-12-10T04:16:25.563Z,17.00
2017-12-10T04:17:30.330Z,17.00
2017-12-10T04:18:35.008Z,17.00
2017-12-10T04:19:39.781Z,17.00
2017-12-10T04:20:44.612Z,17.00
2017-12-10T04:21:49.367Z,17.00
2017-12-10T04:22:54.266Z,17.00
2017-12-10T04:23:58.824Z,17.00
2017-12-10T04:25:03.632Z,17.00
2017-12-10T04:26:08.380Z,17.00
2017-12-10T04:27:13.121Z,17.00
2017-12-10T04:28:18.012Z,17.00
2017-12-10T04:29:22.729Z,17.00
2017-12-10T04:30:27.302Z,17.00
2017-12-10T04:31:31.995Z,17.00
2017-12-10T04:32:36.813Z,17.00
2017-12-10T04:33:41.545Z,17.00
2017-12-10T04:34:46.303Z,17.00
2017-12-10T04:35:51.118Z,17.00
2017-12-10T04:36:55.711Z,17.00
2017-12-10T04:38:00.443Z,17.00
2017-12-10T04:39:05.064Z,17.00
2017-12-10T04:40:09.934Z,17.00
2017-12-10T04:41:14.660Z,17.00
2017-12-10T04:42:19.268Z,17.00
2017-12-10T04:43:23.884Z,17.00
2017-12-10T04:44:28.484Z,17.00
2017-12-10T04:45:33.188Z,17.00
2017-12-10T04:46:38.243Z,17.00
2017-12-10T04:47:42.913Z,17.00
2017-12-10T04:48:47.745Z,17.00
2017-12-10T04:49:52.305Z,17.00
2017-12-10T04:50:57.156Z,17.00
2017-12-10T04:52:01.710Z,17.00
2017-12-10T04:53:06.402Z,17.00
2017-12-10T04:54:11.188Z,17.00
2017-12-10T04:55:16.022Z,16.90
2017-12-10T04:56:21.819Z,16.90
2017-12-10T04:57:26.750Z,16.90
2017-12-10T04:58:31.507Z,17.00
2017-12-10T04:59:36.236Z,16.90
2017-12-10T05:00:41.037Z,17.00
2017-12-10T05:01:45.912Z,17.00
2017-12-10T05:02:50.522Z,17.00
2017-12-10T05:03:55.151Z,17.00
2017-12-10T05:05:00.639Z,17.00
2017-12-10T05:06:05.190Z,17.00
2017-12-10T05:07:10.007Z,16.90
2017-12-10T05:08:14.754Z,17.00
2017-12-10T05:09:19.617Z,17.00
2017-12-10T05:10:24.637Z,16.90
2017-12-10T05:11:29.609Z,16.90
2017-12-10T05:12:34.653Z,16.90
2017-12-10T05:13:39.611Z,16.90
2017-12-10T05:14:44.237Z,16.90
2017-12-10T05:15:49.251Z,16.90
2017-12-10T05:16:54.102Z,16.90
2017-12-10T05:17:58.772Z,17.00
2017-12-10T05:19:03.504Z,16.90
2017-12-10T05:20:08.459Z,16.90
2017-12-10T05:21:13.366Z,16.90
2017-12-10T05:22:18.279Z,16.90
2017-12-10T05:23:23.343Z,16.90
2017-12-10T05:24:28.584Z,16.90
2017-12-10T05:25:33.432Z,16.90
2017-12-10T05:26:38.512Z,16.90
2017-12-10T05:27:43.556Z,16.90
2017-12-10T05:28:48.451Z,16.90
2017-12-10T05:29:53.135Z,16.90
2017-12-10T05:30:58.023Z,16.90
2017-12-10T05:32:02.857Z,17.00
2017-12-10T05:33:07.689Z,16.90
2017-12-10T05:34:12.488Z,16.90
2017-12-10T05:35:17.135Z,16.90
2017-12-10T05:36:21.988Z,16.90
2017-12-10T05:37:26.704Z,16.90
2017-12-10T05:38:31.499Z,16.90
2017-12-10T05:39:36.089Z,16.90
2017-12-10T05:40:40.828Z,16.90
2017-12-10T05:41:45.665Z,16.90
2017-12-10T05:42:50.844Z,16.80
2017-12-10T05:43:55.521Z,16.70
2017-12-10T05:45:00.345Z,16.70
2017-12-10T05:46:05.293Z,16.70
2017-12-10T05:47:10.217Z,16.70
2017-12-10T05:48:15.115Z,16.80
2017-12-10T05:49:19.831Z,16.90
2017-12-10T05:50:24.449Z,17.00
2017-12-10T05:51:29.396Z,17.10
2017-12-10T05:52:34.366Z,17.30
2017-12-10T05:53:39.238Z,17.40
2017-12-10T05:54:43.950Z,17.50
2017-12-10T06:00:09.256Z,17.70
2017-12-10T06:01:14.655Z,17.80
2017-12-10T06:02:19.717Z,18.50
2017-12-10T06:03:24.617Z,18.60
2017-12-10T06:04:29.248Z,18.70
2017-12-10T06:05:34.103Z,18.90
2017-12-10T06:06:38.877Z,19.00
2017-12-10T06:07:43.676Z,19.10
2017-12-10T06:08:48.553Z,19.20
2017-12-10T06:09:53.461Z,19.30
2017-12-10T06:10:58.309Z,19.40
2017-12-10T06:12:03.550Z,19.40
2017-12-10T06:13:08.666Z,19.50
2017-12-10T06:14:13.614Z,19.60
2017-12-10T06:15:18.638Z,19.60
2017-12-10T06:16:23.874Z,19.60
2017-12-10T06:17:28.703Z,19.70
2017-12-10T06:18:33.734Z,19.70
2017-12-10T06:19:39.118Z,19.80
2017-12-10T06:20:43.656Z,19.80
2017-12-10T06:21:48.362Z,19.80
2017-12-10T06:22:53.520Z,19.90
2017-12-10T06:23:58.480Z,19.90
2017-12-10T06:25:03.488Z,19.80
2017-12-10T06:26:08.243Z,19.80
2017-12-10T06:27:13.148Z,19.80
2017-12-10T06:28:17.760Z,19.80
2017-12-10T06:29:22.375Z,19.80
2017-12-10T06:30:27.328Z,19.80
2017-12-10T06:31:32.250Z,19.80
2017-12-10T06:32:37.124Z,19.80
2017-12-10T06:33:41.976Z,19.80
2017-12-10T06:34:46.620Z,19.70
2017-12-10T06:35:51.586Z,19.70
2017-12-10T06:36:56.229Z,19.70
2017-12-10T06:38:00.875Z,19.70
2017-12-10T06:39:05.722Z,19.70
2017-12-10T06:40:10.454Z,19.60
2017-12-10T06:41:15.085Z,19.60
2017-12-10T06:42:20.125Z,19.60
2017-12-10T06:43:24.972Z,19.60
2017-12-10T06:44:29.880Z,19.50
2017-12-10T06:45:34.631Z,19.50
2017-12-10T06:46:39.325Z,19.50
2017-12-10T06:47:44.106Z,19.50
2017-12-10T06:48:48.934Z,19.50
2017-12-10T06:49:53.749Z,19.40
2017-12-10T06:50:58.578Z,19.40
2017-12-10T06:52:03.262Z,19.40
2017-12-10T06:53:08.206Z,19.30
2017-12-10T06:54:13.033Z,19.30
2017-12-10T06:55:17.680Z,19.30
2017-12-10T06:56:22.308Z,19.20
2017-12-10T06:57:27.181Z,19.20
2017-12-10T06:58:32.274Z,19.20
2017-12-10T06:59:37.299Z,19.20
2017-12-10T07:00:42.226Z,19.20
2017-12-10T07:01:46.836Z,19.10
2017-12-10T07:02:51.745Z,19.10
2017-12-10T07:03:56.356Z,19.10
2017-12-10T07:05:01.118Z,19.10
2017-12-10T07:06:05.792Z,19.00
2017-12-10T07:07:10.526Z,19.00
2017-12-10T07:08:15.470Z,19.00
2017-12-10T07:09:20.386Z,19.00
2017-12-10T07:10:25.168Z,19.00
2017-12-10T07:11:30.010Z,19.00
2017-12-10T07:12:34.846Z,18.90
2017-12-10T07:13:39.591Z,18.90
2017-12-10T07:14:44.243Z,18.90
2017-12-10T07:15:49.522Z,18.90
2017-12-10T07:16:55.165Z,18.80
2017-12-10T07:18:00.715Z,18.70
2017-12-10T07:19:05.566Z,18.70
2017-12-10T07:20:10.396Z,18.70
2017-12-10T07:21:15.012Z,18.70
2017-12-10T07:22:19.745Z,18.60
2017-12-10T07:23:24.630Z,18.60
2017-12-10T07:24:30.320Z,18.60
2017-12-10T07:25:35.228Z,18.60
2017-12-10T07:26:40.119Z,18.60
2017-12-10T07:27:44.818Z,18.50
2017-12-10T07:28:49.541Z,18.50
2017-12-10T07:29:54.137Z,18.50
2017-12-10T07:30:59.035Z,18.50
2017-12-10T07:32:04.125Z,18.50
2017-12-10T07:33:08.892Z,18.50
2017-12-10T07:34:13.606Z,18.50
2017-12-10T07:35:19.729Z,18.50
2017-12-10T07:36:24.535Z,18.50
2017-12-10T07:37:30.309Z,18.40
2017-12-10T07:38:35.188Z,18.40
2017-12-10T07:39:39.948Z,18.40
2017-12-10T07:40:44.555Z,18.40
2017-12-10T07:41:49.157Z,18.40
2017-12-10T07:42:53.788Z,18.40
2017-12-10T07:43:58.726Z,18.40
2017-12-10T07:45:04.266Z,18.40
2017-12-10T07:46:09.302Z,18.30
2017-12-10T07:47:14.010Z,18.30
2017-12-10T07:48:19.230Z,18.30
2017-12-10T07:49:23.946Z,18.30
2017-12-10T07:50:29.344Z,18.40
2017-12-10T07:51:34.012Z,18.30
2017-12-10T07:52:38.716Z,18.30
2017-12-10T07:53:43.826Z,18.40
2017-12-10T07:54:48.602Z,18.40
2017-12-10T07:55:53.263Z,18.40
2017-12-10T07:56:58.229Z,18.40
2017-12-10T07:58:03.359Z,18.40
2017-12-10T07:59:08.145Z,18.40
2017-12-10T08:00:13.419Z,18.40
2017-12-10T08:01:18.516Z,18.30
2017-12-10T08:02:23.296Z,18.30
2017-12-10T08:03:28.074Z,18.30
2017-12-10T08:04:33.157Z,18.20
2017-12-10T08:05:38.207Z,18.10
2017-12-10T08:06:43.231Z,18.10
2017-12-10T08:07:48.290Z,18.10
2017-12-10T08:08:53.163Z,18.10
2017-12-10T08:09:58.237Z,18.10
2017-12-10T08:11:03.036Z,18.10
2017-12-10T08:12:08.099Z,18.10
2017-12-10T08:13:13.186Z,18.10
2017-12-10T08:14:17.981Z,18.10
2017-12-10T08:15:22.756Z,18.10
2017-12-10T08:16:27.694Z,18.10
2017-12-10T08:17:32.500Z,18.00
2017-12-10T08:18:37.305Z,18.00
2017-12-10T08:19:42.056Z,18.00
2017-12-10T08:20:46.960Z,18.00
2017-12-10T08:21:51.722Z,18.10
2017-12-10T08:22:56.592Z,18.10
2017-12-10T08:24:01.434Z,18.10
2017-12-10T08:25:06.004Z,18.10
2017-12-10T08:26:10.749Z,18.20
2017-12-10T08:27:15.438Z,18.10
2017-12-10T08:28:20.229Z,18.20
2017-12-10T08:29:25.222Z,18.20
2017-12-10T08:30:30.394Z,18.20
2017-12-10T08:31:35.308Z,18.20
2017-12-10T08:32:40.057Z,18.20
2017-12-10T08:33:44.704Z,18.20
2017-12-10T08:34:49.435Z,18.20
2017-12-10T08:35:54.197Z,18.20
2017-12-10T08:36:58.754Z,18.30
2017-12-10T08:38:03.650Z,18.30
2017-12-10T08:39:08.322Z,18.20
2017-12-10T08:40:12.964Z,18.30
2017-12-10T08:41:17.866Z,18.20
2017-12-10T08:42:22.754Z,18.30
2017-12-10T08:43:27.511Z,18.20
2017-12-10T08:44:32.227Z,18.30
2017-12-10T08:45:37.500Z,18.30
2017-12-10T08:46:42.161Z,18.30
2017-12-10T08:47:46.982Z,18.30
2017-12-10T08:48:51.715Z,18.30
2017-12-10T08:49:56.580Z,18.40
2017-12-10T08:51:01.395Z,18.40
2017-12-10T08:52:06.055Z,18.40
2017-12-10T08:53:10.990Z,18.40
2017-12-10T08:54:15.956Z,18.40
2017-12-10T08:55:20.753Z,18.30
2017-12-10T08:56:25.729Z,18.40
2017-12-10T08:57:30.462Z,18.30
2017-12-10T08:58:35.912Z,18.30
2017-12-10T08:59:40.524Z,18.20
2017-12-10T09:00:45.224Z,18.20
2017-12-10T09:01:49.976Z,18.20
2017-12-10T09:02:54.607Z,18.10
2017-12-10T09:03:59.337Z,18.10
2017-12-10T09:05:04.490Z,18.20
2017-12-10T09:06:09.255Z,18.20
2017-12-10T09:07:14.157Z,18.30
2017-12-10T09:08:18.921Z,18.40
2017-12-10T09:09:23.831Z,18.50
2017-12-10T09:10:28.745Z,18.50
2017-12-10T09:11:33.494Z,18.40
2017-12-10T09:12:38.071Z,18.40
2017-12-10T09:13:42.681Z,18.30
2017-12-10T09:14:48.624Z,18.30
2017-12-10T09:15:53.643Z,18.20
2017-12-10T09:16:58.419Z,18.20
2017-12-10T09:18:03.202Z,18.20
2017-12-10T09:19:08.003Z,18.10
2017-12-10T09:20:12.792Z,18.10
2017-12-10T09:21:17.454Z,18.10
2017-12-10T09:22:22.477Z,18.00
2017-12-10T09:23:27.905Z,18.00
2017-12-10T09:24:32.910Z,18.00
2017-12-10T09:25:37.688Z,17.90
2017-12-10T09:26:42.738Z,18.00
2017-12-10T09:27:47.808Z,17.90
2017-12-10T09:28:52.736Z,17.90
2017-12-10T09:29:57.550Z,17.90
2017-12-10T09:31:02.428Z,18.00
2017-12-10T09:32:07.203Z,18.00
2017-12-10T09:33:12.176Z,18.00
2017-12-10T09:34:18.242Z,18.10
2017-12-10T09:35:23.464Z,18.00
2017-12-10T09:36:28.487Z,18.10
2017-12-10T09:37:33.474Z,18.10
2017-12-10T09:38:38.215Z,18.10
2017-12-10T09:39:43.269Z,18.10
2017-12-10T09:40:48.718Z,18.10
2017-12-10T09:41:53.992Z,18.10
2017-12-10T09:42:59.143Z,18.20
2017-12-10T09:44:16.020Z,18.20
2017-12-10T09:45:20.773Z,18.10
2017-12-10T09:46:25.717Z,18.10
2017-12-10T09:47:30.770Z,18.20
2017-12-10T09:48:35.919Z,18.20
2017-12-10T09:49:41.132Z,18.20
2017-12-10T09:50:46.328Z,18.30
2017-12-10T09:51:52.380Z,18.30
2017-12-10T09:52:57.901Z,18.30
2017-12-10T09:54:03.488Z,18.30
2017-12-10T09:55:08.637Z,18.30
2017-12-10T09:56:13.562Z,18.30
2017-12-10T09:57:18.429Z,18.20
2017-12-10T09:58:23.226Z,18.20
2017-12-10T09:59:28.055Z,18.20
2017-12-10T10:00:33.050Z,18.30
2017-12-10T10:01:37.734Z,18.30
2017-12-10T10:02:42.724Z,18.30
2017-12-10T10:03:47.443Z,18.30
2017-12-10T10:04:52.382Z,18.30
2017-12-10T10:05:57.090Z,18.30
2017-12-10T10:07:01.830Z,18.40
2017-12-10T10:08:06.815Z,18.40
2017-12-10T10:09:11.674Z,18.40
2017-12-10T10:10:16.642Z,18.40
2017-12-10T10:11:21.436Z,18.40
2017-12-10T10:12:26.280Z,18.40
2017-12-10T10:13:30.908Z,18.40
2017-12-10T10:14:36.088Z,18.40
2017-12-10T10:15:40.827Z,18.40
2017-12-10T10:16:45.895Z,18.30
2017-12-10T10:17:51.161Z,18.30
2017-12-10T10:18:57.042Z,18.30
2017-12-10T10:20:03.064Z,18.20
2017-12-10T10:21:08.188Z,18.20
2017-12-10T10:22:12.858Z,18.20
2017-12-10T10:23:17.625Z,18.10
2017-12-10T10:24:22.236Z,18.10
2017-12-10T10:25:27.153Z,18.10
2017-12-10T10:26:32.729Z,18.00
2017-12-10T10:27:37.818Z,18.00
2017-12-10T10:28:43.289Z,18.00
2017-12-10T10:29:50.259Z,18.00
2017-12-10T10:30:56.381Z,18.00
2017-12-10T10:32:01.910Z,18.00
2017-12-10T10:33:07.330Z,18.00
2017-12-10T10:34:12.342Z,18.00
2017-12-10T10:35:17.118Z,18.00
2017-12-10T10:36:22.147Z,17.90
2017-12-10T10:37:27.120Z,17.90
2017-12-10T10:38:31.924Z,17.90
2017-12-10T10:39:36.752Z,17.90
2017-12-10T10:40:41.715Z,17.90
2017-12-10T10:41:46.474Z,17.90
2017-12-10T10:42:51.374Z,17.80
2017-12-10T10:43:56.069Z,17.80
2017-12-10T10:45:01.211Z,17.80
2017-12-10T10:46:06.542Z,17.80
2017-12-10T11:00:00.053Z,18.10
2017-12-10T11:01:05.012Z,18.10
2017-12-10T11:02:10.292Z,18.20
2017-12-10T11:03:15.689Z,18.20
2017-12-10T11:04:20.767Z,18.30
2017-12-10T11:05:26.046Z,18.30
2017-12-10T11:06:31.314Z,18.30
2017-12-10T11:07:36.747Z,18.40
2017-12-10T11:08:41.757Z,18.40
2017-12-10T11:09:47.389Z,18.40
2017-12-10T11:10:52.380Z,18.50
2017-12-10T11:11:57.374Z,18.50
2017-12-10T11:13:02.523Z,18.50
2017-12-10T11:14:07.223Z,18.50
2017-12-10T11:15:12.040Z,18.50
2017-12-10T11:16:17.333Z,18.50
2017-12-10T11:17:22.192Z,18.50
2017-12-10T11:18:26.971Z,18.50
2017-12-10T11:19:31.731Z,18.50
2017-12-10T11:20:36.887Z,18.40
2017-12-10T11:21:41.786Z,18.40
2017-12-10T11:22:46.536Z,18.30
2017-12-10T11:23:51.549Z,18.40
2017-12-10T11:24:56.620Z,18.40
2017-12-10T11:26:01.382Z,18.40
2017-12-10T11:27:06.335Z,18.40
2017-12-10T11:28:11.344Z,18.40
2017-12-10T11:29:16.076Z,18.50
2017-12-10T11:30:20.821Z,18.50
2017-12-10T11:31:25.831Z,18.40
2017-12-10T11:32:30.459Z,18.40
2017-12-10T11:33:35.369Z,18.40
2017-12-10T11:34:40.113Z,18.30
2017-12-10T11:35:45.142Z,18.30
2017-12-10T11:36:49.812Z,18.40
2017-12-10T11:37:54.880Z,18.30
2017-12-10T11:38:59.594Z,18.40
2017-12-10T11:40:04.623Z,18.40
2017-12-10T11:41:09.431Z,18.40
2017-12-10T11:42:14.188Z,18.40
2017-12-10T11:43:18.905Z,18.40
2017-12-10T11:44:23.800Z,18.40
2017-12-10T11:45:28.422Z,18.40
2017-12-10T11:46:33.482Z,18.40
2017-12-10T11:47:38.198Z,18.40
2017-12-10T11:48:42.933Z,18.40
2017-12-10T11:49:47.662Z,18.40
2017-12-10T11:50:52.435Z,18.40
2017-12-10T11:51:57.188Z,18.40
2017-12-10T11:53:01.971Z,18.40
2017-12-10T11:54:07.424Z,18.30
2017-12-10T11:55:12.156Z,18.40
2017-12-10T11:56:17.085Z,18.40
2017-12-10T11:57:21.866Z,18.40
2017-12-10T11:58:26.834Z,18.40
2017-12-10T11:59:31.616Z,18.30
2017-12-10T12:00:36.314Z,18.40
2017-12-10T12:01:41.076Z,18.30
2017-12-10T12:02:45.822Z,18.30
2017-12-10T12:03:50.613Z,18.30
2017-12-10T12:04:55.680Z,18.30
2017-12-10T12:06:00.601Z,18.30
2017-12-10T12:07:05.223Z,18.30
2017-12-10T12:08:09.858Z,18.30
2017-12-10T12:09:14.642Z,18.30
2017-12-10T12:10:19.260Z,18.20
2017-12-10T12:11:24.041Z,18.30
2017-12-10T12:12:28.922Z,18.30
2017-12-10T12:13:33.696Z,18.30
2017-12-10T12:14:38.275Z,18.30
2017-12-10T12:15:43.250Z,18.30
2017-12-10T12:16:48.050Z,18.30
2017-12-10T12:17:52.789Z,18.20
2017-12-10T12:18:57.865Z,18.20
2017-12-10T12:20:02.587Z,18.20
2017-12-10T12:21:07.362Z,18.20
2017-12-10T12:22:12.784Z,18.20
2017-12-10T12:23:17.749Z,18.20
2017-12-10T12:24:22.686Z,18.20
2017-12-10T12:25:27.342Z,18.20
2017-12-10T12:26:32.148Z,18.20
2017-12-10T12:27:36.981Z,18.20
2017-12-10T12:28:41.739Z,18.20
2017-12-10T12:29:46.387Z,18.20
2017-12-10T12:30:51.199Z,18.20
2017-12-10T12:31:55.805Z,18.30
2017-12-10T12:33:00.593Z,18.20
2017-12-10T12:34:05.259Z,18.30
2017-12-10T12:35:10.053Z,18.30
2017-12-10T12:36:14.994Z,18.30
2017-12-10T12:37:19.760Z,18.30
2017-12-10T12:38:24.746Z,18.30
2017-12-10T12:39:29.690Z,18.40
2017-12-10T12:40:34.658Z,18.40
2017-12-10T12:41:39.304Z,18.40
2017-12-10T12:42:44.282Z,18.50
2017-12-10T12:43:48.865Z,18.50
2017-12-10T12:44:53.862Z,18.60
2017-12-10T12:45:58.727Z,18.60
2017-12-10T12:47:03.411Z,18.60
2017-12-10T12:48:08.159Z,18.60
2017-12-10T12:49:12.953Z,18.60
2017-12-10T12:50:17.694Z,18.60
2017-12-10T12:51:22.582Z,18.60
2017-12-10T12:52:27.464Z,18.60
2017-12-10T12:53:32.198Z,18.60
2017-12-10T12:54:37.166Z,18.60
2017-12-10T12:55:42.133Z,18.60
2017-12-10T12:56:47.390Z,18.60
2017-12-10T12:57:52.186Z,18.60
2017-12-10T12:58:56.992Z,18.60
2017-12-10T13:00:01.924Z,18.50
2017-12-10T13:01:06.944Z,18.50
2017-12-10T13:02:11.692Z,18.50
2017-12-10T13:03:16.602Z,18.50
2017-12-10T13:04:21.627Z,18.50
2017-12-10T13:05:26.567Z,18.50
2017-12-10T13:06:31.386Z,18.50
2017-12-10T13:07:36.292Z,18.50
2017-12-10T13:08:41.096Z,18.60
2017-12-10T13:09:46.200Z,18.60
2017-12-10T13:10:50.975Z,18.60
2017-12-10T13:11:55.804Z,18.70
2017-12-10T13:13:00.578Z,18.60
2017-12-10T13:14:05.562Z,18.60
2017-12-10T13:15:10.545Z,18.70
2017-12-10T13:16:15.416Z,18.70
2017-12-10T13:17:20.368Z,18.70
2017-12-10T13:18:25.478Z,18.70
2017-12-10T13:19:30.463Z,18.70
2017-12-10T13:20:35.397Z,18.70
2017-12-10T13:21:40.043Z,18.70
2017-12-10T13:22:44.925Z,18.70
2017-12-10T13:23:49.773Z,18.70
2017-12-10T13:24:54.788Z,18.70
2017-12-10T13:25:59.585Z,18.70
2017-12-10T13:27:04.405Z,18.70
2017-12-10T13:28:09.297Z,18.70
2017-12-10T13:29:13.880Z,18.70
2017-12-10T13:30:18.451Z,18.70
2017-12-10T13:31:23.331Z,18.70
2017-12-10T13:32:28.079Z,18.70
2017-12-10T13:33:33.120Z,18.70
2017-12-10T13:34:37.741Z,18.70
2017-12-10T13:35:42.485Z,18.70
2017-12-10T13:36:47.469Z,18.70
2017-12-10T13:37:52.318Z,18.70
2017-12-10T13:38:57.372Z,18.70
2017-12-10T13:40:02.189Z,18.60
2017-12-10T13:41:07.373Z,18.60
2017-12-10T13:42:12.086Z,18.60
2017-12-10T13:43:16.705Z,18.60
2017-12-10T13:44:21.476Z,18.60
2017-12-10T13:45:26.413Z,18.50
2017-12-10T13:46:31.220Z,18.50
2017-12-10T13:47:35.861Z,18.60
2017-12-10T13:48:40.522Z,18.50
2017-12-10T13:49:45.268Z,18.60
2017-12-10T13:50:49.999Z,18.60
2017-12-10T13:51:54.739Z,18.50
2017-12-10T13:52:59.396Z,18.50
2017-12-10T13:54:04.381Z,18.50
2017-12-10T13:55:10.008Z,18.50
2017-12-10T13:56:14.766Z,18.50
2017-12-10T13:57:19.481Z,18.50
2017-12-10T13:58:24.356Z,18.40
2017-12-10T13:59:28.980Z,18.40
2017-12-10T14:00:33.707Z,18.40
2017-12-10T14:01:38.593Z,18.40
2017-12-10T14:02:43.425Z,18.40
2017-12-10T14:03:48.364Z,18.40
2017-12-10T14:04:53.382Z,18.40
2017-12-10T14:05:58.156Z,18.40
2017-12-10T14:07:02.841Z,18.40
2017-12-10T14:08:07.647Z,18.30
2017-12-10T14:09:12.601Z,18.30
2017-12-10T14:10:17.424Z,18.40
2017-12-10T14:11:22.402Z,18.30
2017-12-10T14:12:27.106Z,18.30
2017-12-10T14:13:32.036Z,18.30